^^
Datos históricos de la estación: Murcia-Puente Tocinos
Diario Informe para Octubre 28, 2021 Unidades:  Ambas    Ingés   Métrico
Diario Semanal Mensual Anual
  Máxima: Mínima: Promedio:
Temperatura: 73.2 °F /  22.9 °C 56.7 °F /  13.7 °C 63.7 °F /  17.6 °C
Punto de rocio: 57.6 °F /  14.2 °C 52.5 °F /  11.4 °C 55 °F /  12.8 °C
Humedad: 89% 51.2% 75%
Velocidad viento: 9.2mph /  14.8km/h - 3.5mph /  5.6km/h
Racha viento: 16.1mph /  25.9km/h - -
Viento- - Sur
Presión: 30.1 in /  1019.6 hPa 30 in /  1014.2 hPa -
Precipitación: 0 in /  0.0 mm    
 
 
Tabla de datos para Octubre 28, 2021
Hora Temperatura Punto de rocio Presión Viento Velocidad viento Racha viento Humedad Intensidad lluvia(por hora) Nubes
00:04 61.7 °F /  16.5 °C 55.6 °F /  13.1 °C 30.1in /  1019.6hPa SSE 1.8mph /  2.9km/h 2.4mph /  3.9km/h 80% 0in /  0.0mm
00:09 61.7 °F /  16.5 °C 55.6 °F /  13.1 °C 30.1in /  1019.6hPa SSE 1.7mph /  2.7km/h 2.3mph /  3.7km/h 80% 0in /  0.0mm
00:14 61.7 °F /  16.5 °C 55.6 °F /  13.1 °C 30.1in /  1019.6hPa SSE 1.4mph /  2.3km/h 2.3mph /  3.7km/h 80% 0in /  0.0mm
00:19 61.7 °F /  16.5 °C 55.4 °F /  13 °C 30.1in /  1019.6hPa SSE 0.9mph /  1.4km/h 2.9mph /  4.7km/h 80% 0in /  0.0mm
00:24 61.5 °F /  16.4 °C 55.2 °F /  12.9 °C 30.1in /  1019.6hPa Calm   2.3mph /  3.7km/h 80% 0in /  0.0mm
00:29 61.5 °F /  16.4 °C 55.6 °F /  13.1 °C 30.1in /  1019.5hPa SSE 0.6mph /  0.9km/h 3.5mph /  5.6km/h 80.7% 0in /  0.0mm
00:34 61.3 °F /  16.3 °C 55.6 °F /  13.1 °C 30.1in /  1019.5hPa SSE 1.4mph /  2.3km/h 3.6mph /  5.8km/h 81% 0in /  0.0mm
00:39 61.3 °F /  16.3 °C 55.6 °F /  13.1 °C 30.1in /  1019.5hPa SSE 1.6mph /  2.6km/h 3.5mph /  5.6km/h 81% 0in /  0.0mm
00:44 61.3 °F /  16.3 °C 55.6 °F /  13.1 °C 30.1in /  1019.4hPa SSE 2mph /  3.2km/h 2.3mph /  3.7km/h 81% 0in /  0.0mm
00:49 61.3 °F /  16.3 °C 55.6 °F /  13.1 °C 30.1in /  1019.4hPa SSE 1.8mph /  2.9km/h 2.3mph /  3.7km/h 81.2% 0in /  0.0mm
00:54 61.3 °F /  16.3 °C 55.8 °F /  13.2 °C 30.1in /  1019.4hPa SSE 1.4mph /  2.3km/h 2.3mph /  3.7km/h 82% 0in /  0.0mm
00:59 61.3 °F /  16.3 °C 55.8 °F /  13.2 °C 30.1in /  1019.3hPa SSE 0.8mph /  1.3km/h 3.5mph /  5.6km/h 82% 0in /  0.0mm
01:04 61.2 °F /  16.2 °C 55.6 °F /  13.1 °C 30.1in /  1019.3hPa Calm   4.6mph /  7.4km/h 82% 0in /  0.0mm
01:09 61 °F /  16.1 °C 55.4 °F /  13 °C 30.1in /  1019.3hPa SE 0.9mph /  1.5km/h 4.6mph /  7.4km/h 82% 0in /  0.0mm
01:14 61 °F /  16.1 °C 55.6 °F /  13.1 °C 30.1in /  1019.3hPa ESE 2.4mph /  3.9km/h 2.9mph /  4.7km/h 82.4% 0in /  0.0mm
01:19 61 °F /  16.1 °C 55.8 °F /  13.2 °C 30.1in /  1019.3hPa ESE 2mph /  3.2km/h 4.6mph /  7.4km/h 83% 0in /  0.0mm
01:24 61 °F /  16.1 °C 55.8 °F /  13.2 °C 30.1in /  1019.3hPa SSE 1.4mph /  2.3km/h 4.7mph /  7.6km/h 83% 0in /  0.0mm
01:29 60.8 °F /  16 °C 55.6 °F /  13.1 °C 30.1in /  1019.2hPa Sur 1.9mph /  3.1km/h 4.7mph /  7.6km/h 83% 0in /  0.0mm
01:34 61 °F /  16.1 °C 55.6 °F /  13.1 °C 30.1in /  1019.2hPa SSO 2.9mph /  4.7km/h 5.8mph /  9.3km/h 82.8% 0in /  0.0mm
01:39 61 °F /  16.1 °C 55.4 °F /  13 °C 30.1in /  1019.2hPa SSO 3.3mph /  5.3km/h 5.8mph /  9.3km/h 82% 0in /  0.0mm
01:44 61 °F /  16.1 °C 55.2 °F /  12.9 °C 30.1in /  1019.2hPa SSO 4mph /  6.4km/h 5.9mph /  9.5km/h 81.5% 0in /  0.0mm
01:49 61.2 °F /  16.2 °C 55.2 °F /  12.9 °C 30.1in /  1019.2hPa Sur 4mph /  6.4km/h 5.8mph /  9.3km/h 81% 0in /  0.0mm
01:54 61.2 °F /  16.2 °C 55.2 °F /  12.9 °C 30.1in /  1019.2hPa Sur 4mph /  6.4km/h 5.2mph /  8.4km/h 81% 0in /  0.0mm
01:59 61 °F /  16.1 °C 55 °F /  12.8 °C 30.1in /  1019.1hPa Sur 3.7mph /  5.9km/h 5.9mph /  9.5km/h 81% 0in /  0.0mm
02:04 61 °F /  16.1 °C 55 °F /  12.8 °C 30.1in /  1019.1hPa Sur 3.1mph /  5km/h 6.4mph /  10.3km/h 81% 0in /  0.0mm
02:09 60.6 °F /  15.9 °C 54.9 °F /  12.7 °C 30.1in /  1019.1hPa SSO 3.5mph /  5.7km/h 6.9mph /  11.1km/h 81% 0in /  0.0mm
02:14 60.4 °F /  15.8 °C 54.9 °F /  12.7 °C 30.1in /  1019.0hPa SSO 4.3mph /  6.9km/h 6.2mph /  10km/h 82% 0in /  0.0mm
02:19 60.3 °F /  15.7 °C 54.7 °F /  12.6 °C 30.1in /  1019.0hPa SSE 4.3mph /  6.9km/h 6.9mph /  11.1km/h 82% 0in /  0.0mm
02:24 60.1 °F /  15.6 °C 54.7 °F /  12.6 °C 30.1in /  1019.0hPa Sur 4.3mph /  6.9km/h 6.9mph /  11.1km/h 82% 0in /  0.0mm
02:29 59.7 °F /  15.4 °C 54.5 °F /  12.5 °C 30.1in /  1018.9hPa SSO 4.5mph /  7.2km/h 7.6mph /  12.2km/h 82.5% 0in /  0.0mm
02:34 59.7 °F /  15.4 °C 54.5 °F /  12.5 °C 30.1in /  1018.9hPa SSO 4.7mph /  7.6km/h 9.2mph /  14.8km/h 83% 0in /  0.0mm
02:39 59.5 °F /  15.3 °C 54.5 °F /  12.5 °C 30.1in /  1018.9hPa SSO 4.9mph /  7.9km/h 6.9mph /  11.1km/h 83% 0in /  0.0mm
02:44 59.5 °F /  15.3 °C 54.3 °F /  12.4 °C 30.1in /  1018.7hPa Sur 5.2mph /  8.4km/h 6.2mph /  10km/h 83% 0in /  0.0mm
02:49 59.5 °F /  15.3 °C 54.3 °F /  12.4 °C 30.1in /  1018.7hPa SSO 4.8mph /  7.8km/h 5.9mph /  9.5km/h 83% 0in /  0.0mm
02:54 59.4 °F /  15.2 °C 54.3 °F /  12.4 °C 30.1in /  1018.8hPa SO 4.3mph /  6.9km/h 5.9mph /  9.5km/h 83.4% 0in /  0.0mm
02:59 59.4 °F /  15.2 °C 54.5 °F /  12.5 °C 30.1in /  1018.8hPa SSO 4mph /  6.4km/h 5.8mph /  9.3km/h 84% 0in /  0.0mm
03:04 59.4 °F /  15.2 °C 54.5 °F /  12.5 °C 30.1in /  1018.8hPa SO 3.6mph /  5.8km/h 4.6mph /  7.4km/h 84% 0in /  0.0mm
03:09 59.4 °F /  15.2 °C 54.5 °F /  12.5 °C 30.1in /  1018.8hPa SO 3.1mph /  5km/h 4.6mph /  7.4km/h 84% 0in /  0.0mm
03:14 59.4 °F /  15.2 °C 54.5 °F /  12.5 °C 30.1in /  1018.6hPa SO 2.4mph /  3.9km/h 4.6mph /  7.4km/h 84% 0in /  0.0mm
03:19 59.4 °F /  15.2 °C 54.5 °F /  12.5 °C 30.1in /  1018.6hPa SO 2.2mph /  3.5km/h 3.5mph /  5.6km/h 84% 0in /  0.0mm
03:24 59.4 °F /  15.2 °C 54.5 °F /  12.5 °C 30.1in /  1018.6hPa SO 1.8mph /  2.9km/h 3.6mph /  5.8km/h 84% 0in /  0.0mm
03:29 59.4 °F /  15.2 °C 54.5 °F /  12.5 °C 30.1in /  1018.6hPa SO 2.1mph /  3.3km/h 4.7mph /  7.6km/h 84% 0in /  0.0mm
03:34 59.4 °F /  15.2 °C 54.5 °F /  12.5 °C 30.1in /  1018.6hPa OSO 2.4mph /  3.9km/h 4.6mph /  7.4km/h 84% 0in /  0.0mm
03:39 59.4 °F /  15.2 °C 54.5 °F /  12.5 °C 30.1in /  1018.6hPa OSO 2.6mph /  4.2km/h 4.6mph /  7.4km/h 84% 0in /  0.0mm
03:44 59.2 °F /  15.1 °C 54.3 °F /  12.4 °C 30.1in /  1018.4hPa OSO 2.9mph /  4.7km/h 3.5mph /  5.6km/h 84% 0in /  0.0mm
03:49 59.2 °F /  15.1 °C 54.3 °F /  12.4 °C 30.1in /  1018.4hPa OSO 2.5mph /  4.1km/h 3.6mph /  5.8km/h 84% 0in /  0.0mm
03:54 59.2 °F /  15.1 °C 54.3 °F /  12.4 °C 30.1in /  1018.4hPa OSO 2mph /  3.2km/h 3.5mph /  5.6km/h 84% 0in /  0.0mm
03:59 59.2 °F /  15.1 °C 54.3 °F /  12.4 °C 30.1in /  1018.2hPa OSO 2mph /  3.2km/h 3.5mph /  5.6km/h 84% 0in /  0.0mm
04:04 59.2 °F /  15.1 °C 54.3 °F /  12.4 °C 30.1in /  1018.2hPa SSO 2mph /  3.2km/h 4mph /  6.4km/h 84% 0in /  0.0mm
04:09 59.2 °F /  15.1 °C 54.3 °F /  12.4 °C 30.1in /  1018.2hPa SSE 2mph /  3.2km/h 5.2mph /  8.4km/h 84% 0in /  0.0mm
04:14 58.8 °F /  14.9 °C 54.1 °F /  12.3 °C 30.1in /  1018.1hPa SSE 2mph /  3.2km/h 4.6mph /  7.4km/h 84.7% 0in /  0.0mm
04:19 58.6 °F /  14.8 °C 54.1 °F /  12.3 °C 30.1in /  1018.1hPa Sur 2.4mph /  3.8km/h 4.6mph /  7.4km/h 85% 0in /  0.0mm
04:24 58.5 °F /  14.7 °C 54.3 °F /  12.4 °C 30.1in /  1018.1hPa Sur 2.9mph /  4.7km/h 4.6mph /  7.4km/h 85.8% 0in /  0.0mm
04:29 58.5 °F /  14.7 °C 54.1 °F /  12.3 °C 30.1in /  1018.0hPa SSE 3mph /  4.8km/h 5.8mph /  9.3km/h 86% 0in /  0.0mm
04:34 58.3 °F /  14.6 °C 54.1 °F /  12.3 °C 30.1in /  1018.0hPa Sur 3.1mph /  5km/h 4.6mph /  7.4km/h 86.1% 0in /  0.0mm
04:39 58.1 °F /  14.5 °C 54.3 °F /  12.4 °C 30.1in /  1018.0hPa Sur 3.1mph /  5km/h 4.6mph /  7.4km/h 87% 0in /  0.0mm
04:44 58.1 °F /  14.5 °C 54.1 °F /  12.3 °C 30.1in /  1017.9hPa SE 3.1mph /  5km/h 4.7mph /  7.6km/h 87% 0in /  0.0mm
04:49 57.9 °F /  14.4 °C 54.1 °F /  12.3 °C 30.1in /  1017.9hPa SSE 3mph /  4.9km/h 4.6mph /  7.4km/h 87% 0in /  0.0mm
04:54 57.9 °F /  14.4 °C 54.1 °F /  12.3 °C 30.1in /  1017.9hPa Sur 2.9mph /  4.7km/h 3.6mph /  5.8km/h 87% 0in /  0.0mm
04:59 57.9 °F /  14.4 °C 54.1 °F /  12.3 °C 30.1in /  1017.8hPa SSO 2.5mph /  4.1km/h 3.6mph /  5.8km/h 87% 0in /  0.0mm
05:04 57.9 °F /  14.4 °C 54.1 °F /  12.3 °C 30.1in /  1017.8hPa SSE 2mph /  3.2km/h 4.6mph /  7.4km/h 87% 0in /  0.0mm
05:09 57.7 °F /  14.3 °C 54 °F /  12.2 °C 30.1in /  1017.8hPa SSE 2.4mph /  3.9km/h 5.8mph /  9.3km/h 87% 0in /  0.0mm
05:14 57.6 °F /  14.2 °C 53.8 °F /  12.1 °C 30.1in /  1017.7hPa SSE 3.1mph /  5km/h 7.4mph /  11.9km/h 87% 0in /  0.0mm
05:19 57.4 °F /  14.1 °C 53.4 °F /  11.9 °C 30.1in /  1017.7hPa Sur 3.5mph /  5.7km/h 5.9mph /  9.5km/h 87.1% 0in /  0.0mm
05:24 57 °F /  13.9 °C 53.6 °F /  12 °C 30.1in /  1017.7hPa SSE 4.3mph /  6.9km/h 5.9mph /  9.5km/h 88% 0in /  0.0mm
05:29 56.8 °F /  13.8 °C 53.4 °F /  11.9 °C 30.1in /  1017.7hPa SSE 4.2mph /  6.7km/h 6.9mph /  11.1km/h 88% 0in /  0.0mm
05:34 56.8 °F /  13.8 °C 53.2 °F /  11.8 °C 30.1in /  1017.7hPa SSE 4mph /  6.4km/h 6.9mph /  11.1km/h 88% 0in /  0.0mm
05:39 56.8 °F /  13.8 °C 53.2 °F /  11.8 °C 30.1in /  1017.7hPa Sur 4mph /  6.4km/h 6.4mph /  10.3km/h 88% 0in /  0.0mm
05:44 56.8 °F /  13.8 °C 53.6 °F /  12 °C 30.1in /  1017.6hPa SSO 4mph /  6.4km/h 7.4mph /  11.9km/h 89% 0in /  0.0mm
05:49 56.8 °F /  13.8 °C 53.6 °F /  12 °C 30.1in /  1017.6hPa SO 4mph /  6.4km/h 6.4mph /  10.3km/h 89% 0in /  0.0mm
05:54 56.8 °F /  13.8 °C 53.4 °F /  11.9 °C 30.1in /  1017.7hPa SSO 4mph /  6.4km/h 6.9mph /  11.1km/h 88.5% 0in /  0.0mm
05:59 57 °F /  13.9 °C 53.4 °F /  11.9 °C 30.1in /  1017.7hPa SSO 4mph /  6.4km/h 6.2mph /  10km/h 88% 0in /  0.0mm
06:04 57 °F /  13.9 °C 53.4 °F /  11.9 °C 30.1in /  1017.7hPa SSO 4mph /  6.4km/h 5.9mph /  9.5km/h 88% 0in /  0.0mm
06:09 57 °F /  13.9 °C 53.4 °F /  11.9 °C 30.1in /  1017.8hPa SO 4mph /  6.4km/h 6.9mph /  11.1km/h 88% 0in /  0.0mm
06:14 57 °F /  13.9 °C 53.2 °F /  11.8 °C 30.1in /  1017.8hPa SSO 4mph /  6.4km/h 5.8mph /  9.3km/h 87.1% 0in /  0.0mm
06:19 57 °F /  13.9 °C 53.2 °F /  11.8 °C 30.1in /  1017.8hPa SSO 3.9mph /  6.2km/h 6.2mph /  10km/h 87% 0in /  0.0mm
06:24 57 °F /  13.9 °C 53.2 °F /  11.8 °C 30.1in /  1017.8hPa Sur 3.6mph /  5.8km/h 4.7mph /  7.6km/h 87% 0in /  0.0mm
06:29 57 °F /  13.9 °C 53.2 °F /  11.8 °C 30.1in /  1017.7hPa Sur 3.4mph /  5.5km/h 5.2mph /  8.4km/h 87% 0in /  0.0mm
06:34 57 °F /  13.9 °C 53.2 °F /  11.8 °C 30.1in /  1017.7hPa Sur 3.1mph /  5km/h 5.2mph /  8.4km/h 87% 0in /  0.0mm
06:39 57 °F /  13.9 °C 53.2 °F /  11.8 °C 30.1in /  1017.7hPa SSO 3.5mph /  5.6km/h 5.9mph /  9.5km/h 87% 0in /  0.0mm
06:44 57 °F /  13.9 °C 53.2 °F /  11.8 °C 30.1in /  1017.7hPa SSO 4mph /  6.4km/h 5.8mph /  9.3km/h 87% 0in /  0.0mm
06:49 57 °F /  13.9 °C 53.2 °F /  11.8 °C 30.1in /  1017.7hPa SO 3.9mph /  6.2km/h 5.8mph /  9.3km/h 87% 0in /  0.0mm
06:54 57 °F /  13.9 °C 53.2 °F /  11.8 °C 30.1in /  1017.7hPa SO 3.6mph /  5.8km/h 5.2mph /  8.4km/h 87% 0in /  0.0mm
06:59 57 °F /  13.9 °C 53.2 °F /  11.8 °C 30.1in /  1017.7hPa SO 3.3mph /  5.3km/h 4.6mph /  7.4km/h 87% 0in /  0.0mm
07:04 57 °F /  13.9 °C 53.2 °F /  11.8 °C 30.1in /  1017.7hPa SO 2.9mph /  4.7km/h 5.4mph /  8.7km/h 87% 0in /  0.0mm
07:09 57 °F /  13.9 °C 53.2 °F /  11.8 °C 30.1in /  1017.7hPa SO 3mph /  4.8km/h 5.8mph /  9.3km/h 87% 0in /  0.0mm
07:14 57 °F /  13.9 °C 53.2 °F /  11.8 °C 30.1in /  1017.7hPa SO 3.1mph /  5km/h 4mph /  6.4km/h 87% 0in /  0.0mm
07:19 56.8 °F /  13.8 °C 53.1 °F /  11.7 °C 30.1in /  1017.7hPa SO 2.9mph /  4.6km/h 4.6mph /  7.4km/h 86.7% 0in /  0.0mm
07:24 56.8 °F /  13.8 °C 53.1 °F /  11.7 °C 30.1in /  1017.8hPa SO 2.4mph /  3.9km/h 4.7mph /  7.6km/h 87% 0in /  0.0mm
07:29 56.8 °F /  13.8 °C 53.1 °F /  11.7 °C 30.1in /  1017.8hPa SO 2.6mph /  4.2km/h 5.9mph /  9.5km/h 87% 0in /  0.0mm
07:34 56.8 °F /  13.8 °C 53.1 °F /  11.7 °C 30.1in /  1017.8hPa SO 2.9mph /  4.7km/h 5.9mph /  9.5km/h 87% 0in /  0.0mm
07:39 56.8 °F /  13.8 °C 53.1 °F /  11.7 °C 30.1in /  1017.8hPa SO 3.4mph /  5.4km/h 6.9mph /  11.1km/h 87% 0in /  0.0mm
07:44 56.8 °F /  13.8 °C 53.1 °F /  11.7 °C 30.1in /  1017.7hPa SO 4mph /  6.4km/h 5.2mph /  8.4km/h 87% 0in /  0.0mm
07:49 56.8 °F /  13.8 °C 53.1 °F /  11.7 °C 30.1in /  1017.7hPa OSO 3.7mph /  5.9km/h 4.7mph /  7.6km/h 87% 0in /  0.0mm
07:54 56.8 °F /  13.8 °C 53.1 °F /  11.7 °C 30.1in /  1017.7hPa SO 3.1mph /  5km/h 4.7mph /  7.6km/h 87% 0in /  0.0mm
07:59 56.8 °F /  13.8 °C 53.1 °F /  11.7 °C 30.1in /  1017.7hPa SSO 3mph /  4.9km/h 4.7mph /  7.6km/h 87% 0in /  0.0mm
08:04 56.8 °F /  13.8 °C 52.9 °F /  11.6 °C 30.1in /  1017.7hPa SSO 2.9mph /  4.7km/h 6.2mph /  10km/h 86.5% 0in /  0.0mm
08:09 56.8 °F /  13.8 °C 52.7 °F /  11.5 °C 30.1in /  1017.9hPa Sur 3.2mph /  5.1km/h 5.8mph /  9.3km/h 86% 0in /  0.0mm
08:14 56.8 °F /  13.8 °C 52.7 °F /  11.5 °C 30.1in /  1017.9hPa SSO 3.6mph /  5.8km/h 4.7mph /  7.6km/h 86% 0in /  0.0mm
08:19 56.8 °F /  13.8 °C 52.7 °F /  11.5 °C 30.1in /  1017.9hPa SSO 3.4mph /  5.5km/h 4.7mph /  7.6km/h 86% 0in /  0.0mm
08:24 56.8 °F /  13.8 °C 52.7 °F /  11.5 °C 30.1in /  1018.0hPa SSO 3.1mph /  5km/h 4.6mph /  7.4km/h 86% 0in /  0.0mm
08:29 56.8 °F /  13.8 °C 52.7 °F /  11.5 °C 30.1in /  1018.0hPa SO 2.8mph /  4.5km/h 4.6mph /  7.4km/h 86% 0in /  0.0mm
08:34 56.8 °F /  13.8 °C 52.7 °F /  11.5 °C 30.1in /  1018.0hPa OSO 2.4mph /  3.9km/h 4.7mph /  7.6km/h 86% 0in /  0.0mm
08:39 56.8 °F /  13.8 °C 52.7 °F /  11.5 °C 30.1in /  1018.0hPa OSO 2.4mph /  3.9km/h 5.8mph /  9.3km/h 86% 0in /  0.0mm
08:44 56.7 °F /  13.7 °C 52.5 °F /  11.4 °C 30.1in /  1017.9hPa SO 2.4mph /  3.9km/h 5.8mph /  9.3km/h 86% 0in /  0.0mm
08:49 56.7 °F /  13.7 °C 52.5 °F /  11.4 °C 30.1in /  1017.9hPa OSO 2.4mph /  3.9km/h 4.6mph /  7.4km/h 86% 0in /  0.0mm
08:54 56.8 °F /  13.8 °C 52.7 °F /  11.5 °C 30.1in /  1018.1hPa OSO 2.4mph /  3.9km/h 3.1mph /  5km/h 86% 0in /  0.0mm
08:59 56.8 °F /  13.8 °C 52.7 °F /  11.5 °C 30.1in /  1018.1hPa OSO 2.2mph /  3.5km/h 3.5mph /  5.6km/h 86% 0in /  0.0mm
09:04 56.8 °F /  13.8 °C 52.7 °F /  11.5 °C 30.1in /  1018.1hPa OSO 1.8mph /  2.9km/h 2.4mph /  3.9km/h 86% 0in /  0.0mm
09:09 57 °F /  13.9 °C 52.9 °F /  11.6 °C 30.1in /  1018.1hPa Sur 1.8mph /  2.9km/h 4mph /  6.4km/h 86% 0in /  0.0mm
09:14 57 °F /  13.9 °C 52.9 °F /  11.6 °C 30.1in /  1018.1hPa SE 1.8mph /  2.9km/h 4.6mph /  7.4km/h 86% 0in /  0.0mm
09:19 57 °F /  13.9 °C 52.9 °F /  11.6 °C 30.1in /  1018.1hPa SE 2.1mph /  3.3km/h 4.6mph /  7.4km/h 86% 0in /  0.0mm
09:24 57 °F /  13.9 °C 52.9 °F /  11.6 °C 30.1in /  1018.2hPa SE 2.4mph /  3.9km/h 4.6mph /  7.4km/h 86% 0in /  0.0mm
09:29 57 °F /  13.9 °C 52.9 °F /  11.6 °C 30.1in /  1018.2hPa ESE 2.2mph /  3.6km/h 3.6mph /  5.8km/h 86% 0in /  0.0mm
09:34 57 °F /  13.9 °C 52.9 °F /  11.6 °C 30.1in /  1018.2hPa ESE 2mph /  3.2km/h 4.6mph /  7.4km/h 86% 0in /  0.0mm
09:39 57 °F /  13.9 °C 52.9 °F /  11.6 °C 30.1in /  1018.2hPa SE 2.3mph /  3.7km/h 5.2mph /  8.4km/h 86% 0in /  0.0mm
09:44 57 °F /  13.9 °C 52.9 °F /  11.6 °C 30.1in /  1018.2hPa SE 2.9mph /  4.7km/h 4.6mph /  7.4km/h 86% 0in /  0.0mm
09:49 57 °F /  13.9 °C 53.1 °F /  11.7 °C 30.1in /  1018.2hPa SSE 2.9mph /  4.7km/h 5.2mph /  8.4km/h 86.6% 0in /  0.0mm
09:54 57 °F /  13.9 °C 52.9 °F /  11.6 °C 30.1in /  1018.2hPa SSE 2.9mph /  4.7km/h 5.4mph /  8.7km/h 86% 0in /  0.0mm
09:59 57.2 °F /  14 °C 53.1 °F /  11.7 °C 30.1in /  1018.1hPa SSE 3.2mph /  5.1km/h 5.8mph /  9.3km/h 85.7% 0in /  0.0mm
10:04 57.6 °F /  14.2 °C 53.1 °F /  11.7 °C 30.1in /  1018.1hPa SSE 3.6mph /  5.8km/h 5.8mph /  9.3km/h 85% 0in /  0.0mm
10:09 57.6 °F /  14.2 °C 53.1 °F /  11.7 °C 30.1in /  1018.3hPa SSO 3.6mph /  5.8km/h 4.6mph /  7.4km/h 84.8% 0in /  0.0mm
10:14 57.7 °F /  14.3 °C 53.1 °F /  11.7 °C 30.1in /  1018.3hPa SSO 3.6mph /  5.8km/h 4.6mph /  7.4km/h 84.1% 0in /  0.0mm
10:19 58.1 °F /  14.5 °C 53.2 °F /  11.8 °C 30.1in /  1018.3hPa SSO 3.3mph /  5.3km/h 5.2mph /  8.4km/h 84% 0in /  0.0mm
10:24 58.5 °F /  14.7 °C 53.4 °F /  11.9 °C 30.1in /  1018.3hPa Sur 2.9mph /  4.7km/h 4.6mph /  7.4km/h 83.7% 0in /  0.0mm
10:29 58.6 °F /  14.8 °C 53.4 °F /  11.9 °C 30.1in /  1018.3hPa SSO 2.9mph /  4.7km/h 5.8mph /  9.3km/h 82.8% 0in /  0.0mm
10:34 58.6 °F /  14.8 °C 53.2 °F /  11.8 °C 30.1in /  1018.3hPa OSO 2.9mph /  4.7km/h 5.8mph /  9.3km/h 82% 0in /  0.0mm
10:39 58.8 °F /  14.9 °C 53.2 °F /  11.8 °C 30.1in /  1018.3hPa SSE 3mph /  4.8km/h 4.6mph /  7.4km/h 82% 0in /  0.0mm
10:44 59.2 °F /  15.1 °C 53.6 °F /  12 °C 30.1in /  1018.3hPa SSE 3.1mph /  5km/h 5.4mph /  8.7km/h 82% 0in /  0.0mm
10:49 59.4 °F /  15.2 °C 54 °F /  12.2 °C 30.1in /  1018.3hPa SSE 3.3mph /  5.3km/h 6.2mph /  10km/h 82% 0in /  0.0mm
10:54 59.4 °F /  15.2 °C 53.6 °F /  12 °C 30.1in /  1018.4hPa SSE 3.6mph /  5.8km/h 7.4mph /  11.9km/h 81.1% 0in /  0.0mm
10:59 59.5 °F /  15.3 °C 53.8 °F /  12.1 °C 30.1in /  1018.4hPa SSE 4.3mph /  6.9km/h 8.1mph /  13km/h 81.2% 0in /  0.0mm
11:04 59.7 °F /  15.4 °C 54 °F /  12.2 °C 30.1in /  1018.4hPa SE 5.2mph /  8.4km/h 8.1mph /  13km/h 81% 0in /  0.0mm
11:09 59.7 °F /  15.4 °C 54 °F /  12.2 °C 30.1in /  1018.4hPa SSE 5.5mph /  8.8km/h 8.1mph /  13km/h 80.9% 0in /  0.0mm
11:14 60.1 °F /  15.6 °C 54 °F /  12.2 °C 30.1in /  1018.3hPa SSE 5.9mph /  9.5km/h 6.9mph /  11.1km/h 80.4% 0in /  0.0mm
11:19 60.4 °F /  15.8 °C 54.3 °F /  12.4 °C 30.1in /  1018.3hPa SSE 5.3mph /  8.5km/h 5.8mph /  9.3km/h 79.9% 0in /  0.0mm
11:24 61.2 °F /  16.2 °C 54.3 °F /  12.4 °C 30.1in /  1018.3hPa SSE 4.3mph /  6.9km/h 6.9mph /  11.1km/h 78.6% 0in /  0.0mm
11:29 61.7 °F /  16.5 °C 54.7 °F /  12.6 °C 30.1in /  1018.2hPa SSE 4mph /  6.5km/h 5.8mph /  9.3km/h 77.7% 0in /  0.0mm
11:34 62.2 °F /  16.8 °C 54.3 °F /  12.4 °C 30.1in /  1018.2hPa SSO 3.6mph /  5.8km/h 5.9mph /  9.5km/h 75.6% 0in /  0.0mm
11:39 62.2 °F /  16.8 °C 54.1 °F /  12.3 °C 30.1in /  1018.2hPa OSO 3.4mph /  5.5km/h 4.6mph /  7.4km/h 74.4% 0in /  0.0mm
11:44 62.8 °F /  17.1 °C 54.5 °F /  12.5 °C 30.1in /  1018.1hPa SO 3.1mph /  5km/h 5.9mph /  9.5km/h 74.3% 0in /  0.0mm
11:49 63.1 °F /  17.3 °C 54.3 °F /  12.4 °C 30.1in /  1018.1hPa Sur 2.9mph /  4.6km/h 4.6mph /  7.4km/h 72.7% 0in /  0.0mm
11:54 63.5 °F /  17.5 °C 54.3 °F /  12.4 °C 30.1in /  1018.1hPa SE 2.4mph /  3.9km/h 4.7mph /  7.6km/h 72% 0in /  0.0mm
11:59 64 °F /  17.8 °C 54.7 °F /  12.6 °C 30.1in /  1018.0hPa SE 2.4mph /  3.9km/h 3.5mph /  5.6km/h 71.7% 0in /  0.0mm
12:04 64.8 °F /  18.2 °C 54.9 °F /  12.7 °C 30.1in /  1018.0hPa Este 2.4mph /  3.9km/h 4.7mph /  7.6km/h 70.4% 0in /  0.0mm
12:09 64.9 °F /  18.3 °C 54.5 °F /  12.5 °C 30.1in /  1018.0hPa NO 2.2mph /  3.6km/h 4.7mph /  7.6km/h 69.1% 0in /  0.0mm
12:14 64.9 °F /  18.3 °C 54.5 °F /  12.5 °C 30.1in /  1017.9hPa NO 2mph /  3.2km/h 3.6mph /  5.8km/h 69% 0in /  0.0mm
12:19 65.5 °F /  18.6 °C 55 °F /  12.8 °C 30.1in /  1017.9hPa North 1.9mph /  3.1km/h 4.7mph /  7.6km/h 68.8% 0in /  0.0mm
12:24 66.2 °F /  19 °C 54.9 °F /  12.7 °C 30.1in /  1017.9hPa Sur 1.8mph /  2.9km/h 4.6mph /  7.4km/h 67% 0in /  0.0mm
12:29 66.6 °F /  19.2 °C 54.9 °F /  12.7 °C 30.1in /  1017.9hPa Oeste 2.1mph /  3.3km/h 5.8mph /  9.3km/h 66.3% 0in /  0.0mm
12:34 66.7 °F /  19.3 °C 54.9 °F /  12.7 °C 30.1in /  1017.9hPa ONO 2.4mph /  3.9km/h 3.5mph /  5.6km/h 66% 0in /  0.0mm
12:39 66.9 °F /  19.4 °C 55.2 °F /  12.9 °C 30.1in /  1017.9hPa SSE 2.2mph /  3.5km/h 5.9mph /  9.5km/h 66% 0in /  0.0mm
12:44 67.6 °F /  19.8 °C 55.2 °F /  12.9 °C 30.1in /  1017.6hPa SSO 1.8mph /  2.9km/h 5.8mph /  9.3km/h 64.7% 0in /  0.0mm
12:49 67.6 °F /  19.8 °C 55 °F /  12.8 °C 30.1in /  1017.6hPa Oeste 2.2mph /  3.6km/h 5.2mph /  8.4km/h 64% 0in /  0.0mm
12:54 67.5 °F /  19.7 °C 55 °F /  12.8 °C 30.1in /  1017.6hPa OSO 2.9mph /  4.7km/h 4mph /  6.4km/h 64.3% 0in /  0.0mm
12:59 67.8 °F /  19.9 °C 55.4 °F /  13 °C 30.1in /  1017.6hPa SSO 2.5mph /  4km/h 4.7mph /  7.6km/h 64.3% 0in /  0.0mm
13:04 68.4 °F /  20.2 °C 55.4 °F /  13 °C 30.1in /  1017.6hPa SSE 2mph /  3.2km/h 3.5mph /  5.6km/h 63.7% 0in /  0.0mm
13:09 68.7 °F /  20.4 °C 55.2 °F /  12.9 °C 30.1in /  1017.6hPa Este 1.9mph /  3.1km/h 3.6mph /  5.8km/h 62.4% 0in /  0.0mm
13:14 68.9 °F /  20.5 °C 55.2 °F /  12.9 °C 30in /  1017.3hPa NO 1.8mph /  2.9km/h 4.6mph /  7.4km/h 62% 0in /  0.0mm
13:19 69.1 °F /  20.6 °C 55.6 °F /  13.1 °C 30in /  1017.3hPa North 1.9mph /  3km/h 4.7mph /  7.6km/h 62.2% 0in /  0.0mm
13:24 69.1 °F /  20.6 °C 55.6 °F /  13.1 °C 30in /  1017.3hPa OSO 2mph /  3.2km/h 5.4mph /  8.7km/h 62% 0in /  0.0mm
13:29 69.1 °F /  20.6 °C 55.4 °F /  13 °C 30in /  1017.3hPa North 2.4mph /  3.8km/h 5.8mph /  9.3km/h 61.5% 0in /  0.0mm
13:34 69.1 °F /  20.6 °C 55.6 °F /  13.1 °C 30in /  1017.3hPa ONO 2.9mph /  4.7km/h 5.8mph /  9.3km/h 62% 0in /  0.0mm
13:39 68.9 °F /  20.5 °C 55.4 °F /  13 °C 30in /  1017.3hPa ONO 3mph /  4.8km/h 5.8mph /  9.3km/h 62% 0in /  0.0mm
13:44 68.9 °F /  20.5 °C 55.4 °F /  13 °C 30in /  1017.0hPa ONO 3.1mph /  5km/h 7.4mph /  11.9km/h 62% 0in /  0.0mm
13:49 69.1 °F /  20.6 °C 55.6 °F /  13.1 °C 30in /  1017.0hPa NO 3mph /  4.9km/h 7.6mph /  12.2km/h 62.3% 0in /  0.0mm
13:54 69.3 °F /  20.7 °C 55.9 °F /  13.3 °C 30in /  1017.0hPa NNE 2.9mph /  4.7km/h 8.1mph /  13km/h 62.5% 0in /  0.0mm
13:59 69.6 °F /  20.9 °C 55.8 °F /  13.2 °C 30in /  1016.7hPa Este 3mph /  4.8km/h 4.6mph /  7.4km/h 61.2% 0in /  0.0mm
14:04 70 °F /  21.1 °C 55.6 °F /  13.1 °C 30in /  1016.7hPa Oeste 3.1mph /  5km/h 5.2mph /  8.4km/h 60.1% 0in /  0.0mm
14:09 70.3 °F /  21.3 °C 55.4 °F /  13 °C 30in /  1016.7hPa Sur 2.8mph /  4.5km/h 5.2mph /  8.4km/h 59.3% 0in /  0.0mm
14:14 70.9 °F /  21.6 °C 55.6 °F /  13.1 °C 30in /  1016.3hPa SO 2.4mph /  3.9km/h 3.6mph /  5.8km/h 58.6% 0in /  0.0mm
14:19 71.1 °F /  21.7 °C 55.4 °F /  13 °C 30in /  1016.3hPa SO 2.4mph /  3.9km/h 5.8mph /  9.3km/h 57.8% 0in /  0.0mm
14:24 71.2 °F /  21.8 °C 55.8 °F /  13.2 °C 30in /  1016.3hPa North 2.4mph /  3.9km/h 5.8mph /  9.3km/h 58.2% 0in /  0.0mm
14:29 71.2 °F /  21.8 °C 55.6 °F /  13.1 °C 30in /  1016.1hPa NNE 2.6mph /  4.2km/h 5.2mph /  8.4km/h 57.9% 0in /  0.0mm
14:34 71.4 °F /  21.9 °C 56.1 °F /  13.4 °C 30in /  1016.1hPa NE 2.9mph /  4.7km/h 5.9mph /  9.5km/h 58.5% 0in /  0.0mm
14:39 71.6 °F /  22 °C 56.1 °F /  13.4 °C 30in /  1016.1hPa NO 2.9mph /  4.7km/h 6.9mph /  11.1km/h 58.1% 0in /  0.0mm
14:44 71.8 °F /  22.1 °C 56.3 °F /  13.5 °C 30in /  1015.9hPa NNO 2.9mph /  4.7km/h 7.6mph /  12.2km/h 58.4% 0in /  0.0mm
14:49 72 °F /  22.2 °C 56.5 °F /  13.6 °C 30in /  1015.9hPa NNO 3.2mph /  5.1km/h 8.1mph /  13km/h 58.4% 0in /  0.0mm
14:54 72 °F /  22.2 °C 56.3 °F /  13.5 °C 30in /  1015.9hPa NNO 3.6mph /  5.8km/h 8.1mph /  13km/h 58% 0in /  0.0mm
14:59 72 °F /  22.2 °C 56.3 °F /  13.5 °C 30in /  1015.6hPa NNE 4mph /  6.5km/h 6.9mph /  11.1km/h 57.9% 0in /  0.0mm
15:04 72 °F /  22.2 °C 55.9 °F /  13.3 °C 30in /  1015.6hPa NE 4.7mph /  7.6km/h 8.5mph /  13.7km/h 57% 0in /  0.0mm
15:09 72.1 °F /  22.3 °C 55.6 °F /  13.1 °C 30in /  1015.6hPa NNE 4.3mph /  6.9km/h 5.8mph /  9.3km/h 56% 0in /  0.0mm
15:14 72.3 °F /  22.4 °C 55.8 °F /  13.2 °C 30in /  1015.5hPa NNE 3.6mph /  5.8km/h 9.2mph /  14.8km/h 56.1% 0in /  0.0mm
15:19 72.3 °F /  22.4 °C 56.3 °F /  13.5 °C 30in /  1015.5hPa North 3.9mph /  6.2km/h 9.2mph /  14.8km/h 57% 0in /  0.0mm
15:24 72 °F /  22.2 °C 56.1 °F /  13.4 °C 30in /  1015.5hPa North 4.3mph /  6.9km/h 9.2mph /  14.8km/h 57.2% 0in /  0.0mm
15:29 72 °F /  22.2 °C 55.6 °F /  13.1 °C 30in /  1015.4hPa NE 4.7mph /  7.5km/h 9.2mph /  14.8km/h 56.3% 0in /  0.0mm
15:34 72 °F /  22.2 °C 55.6 °F /  13.1 °C 30in /  1015.4hPa North 5.2mph /  8.4km/h 7.4mph /  11.9km/h 56.3% 0in /  0.0mm
15:39 72.1 °F /  22.3 °C 56.1 °F /  13.4 °C 30in /  1015.4hPa NE 4.8mph /  7.7km/h 8.1mph /  13km/h 57% 0in /  0.0mm
15:44 72.3 °F /  22.4 °C 55.8 °F /  13.2 °C 30in /  1015.1hPa ENE 4mph /  6.4km/h 8.1mph /  13km/h 56% 0in /  0.0mm
15:49 72.1 °F /  22.3 °C 55.6 °F /  13.1 °C 30in /  1015.1hPa NNE 4.3mph /  6.9km/h 9.2mph /  14.8km/h 56% 0in /  0.0mm
15:54 72.3 °F /  22.4 °C 55.8 °F /  13.2 °C 30in /  1015.1hPa NNE 4.7mph /  7.6km/h 11.5mph /  18.5km/h 56% 0in /  0.0mm
15:59 72.5 °F /  22.5 °C 55 °F /  12.8 °C 30in /  1014.9hPa NE 4.7mph /  7.6km/h 9.2mph /  14.8km/h 54.6% 0in /  0.0mm
16:04 72.5 °F /  22.5 °C 54.9 °F /  12.7 °C 30in /  1014.9hPa NNE 4.7mph /  7.6km/h 8.7mph /  14km/h 54% 0in /  0.0mm
16:09 72.7 °F /  22.6 °C 55 °F /  12.8 °C 30in /  1014.9hPa NE 5.2mph /  8.3km/h 11.5mph /  18.5km/h 54% 0in /  0.0mm
16:14 72.9 °F /  22.7 °C 54.9 °F /  12.7 °C 30in /  1014.8hPa NE 5.9mph /  9.5km/h 8.7mph /  14km/h 53.2% 0in /  0.0mm
16:19 72.9 °F /  22.7 °C 54.7 °F /  12.6 °C 30in /  1014.8hPa NE 5.5mph /  8.8km/h 9.2mph /  14.8km/h 53% 0in /  0.0mm
16:24 73 °F /  22.8 °C 54.5 °F /  12.5 °C 30in /  1014.8hPa ENE 4.7mph /  7.6km/h 9.2mph /  14.8km/h 52.3% 0in /  0.0mm
16:29 72.9 °F /  22.7 °C 54.3 °F /  12.4 °C 30in /  1014.7hPa NE 5mph /  8km/h 9.2mph /  14.8km/h 52.1% 0in /  0.0mm
16:34 72.9 °F /  22.7 °C 54.5 °F /  12.5 °C 30in /  1014.7hPa ENE 5.4mph /  8.7km/h 8.1mph /  13km/h 52.7% 0in /  0.0mm
16:39 73 °F /  22.8 °C 54.3 °F /  12.4 °C 30in /  1014.7hPa Este 4.8mph /  7.8km/h 8.1mph /  13km/h 52.2% 0in /  0.0mm
16:44 73.2 °F /  22.9 °C 54.5 °F /  12.5 °C 30in /  1014.5hPa ENE 4mph /  6.4km/h 11.8mph /  19km/h 51.9% 0in /  0.0mm
16:49 73.2 °F /  22.9 °C 54.3 °F /  12.4 °C 30in /  1014.5hPa ESE 4.5mph /  7.3km/h 11.5mph /  18.5km/h 51.6% 0in /  0.0mm
16:54 73.2 °F /  22.9 °C 54.1 °F /  12.3 °C 30in /  1014.5hPa ESE 5.4mph /  8.7km/h 8.5mph /  13.7km/h 51.2% 0in /  0.0mm
16:59 73.2 °F /  22.9 °C 54.1 °F /  12.3 °C 30in /  1014.3hPa SE 5mph /  8km/h 7.4mph /  11.9km/h 51.4% 0in /  0.0mm
17:04 73.2 °F /  22.9 °C 54.5 °F /  12.5 °C 30in /  1014.3hPa ESE 4.3mph /  6.9km/h 11.8mph /  19km/h 52% 0in /  0.0mm
17:09 72.9 °F /  22.7 °C 55 °F /  12.8 °C 30in /  1014.3hPa ESE 4.9mph /  7.9km/h 11.8mph /  19km/h 53.4% 0in /  0.0mm
17:14 72.7 °F /  22.6 °C 55 °F /  12.8 °C 30in /  1014.2hPa ESE 5.9mph /  9.5km/h 11.5mph /  18.5km/h 54% 0in /  0.0mm
17:19 72.9 °F /  22.7 °C 55.2 °F /  12.9 °C 30in /  1014.2hPa ESE 6.5mph /  10.5km/h 15mph /  24.1km/h 54% 0in /  0.0mm
17:24 72.9 °F /  22.7 °C 55.2 °F /  12.9 °C 30in /  1014.3hPa ESE 7.4mph /  11.9km/h 11.8mph /  19km/h 54% 0in /  0.0mm
17:29 72.9 °F /  22.7 °C 55.8 °F /  13.2 °C 30in /  1014.3hPa ESE 7mph /  11.3km/h 13mph /  20.9km/h 55% 0in /  0.0mm
17:34 72.9 °F /  22.7 °C 55.6 °F /  13.1 °C 30in /  1014.3hPa ESE 6.4mph /  10.3km/h 13.5mph /  21.7km/h 54.8% 0in /  0.0mm
17:39 72.3 °F /  22.4 °C 55.6 °F /  13.1 °C 30in /  1014.3hPa SE 7.3mph /  11.7km/h 13.8mph /  22.2km/h 55.7% 0in /  0.0mm
17:44 72 °F /  22.2 °C 55.9 °F /  13.3 °C 30in /  1014.3hPa ESE 8.5mph /  13.7km/h 12.7mph /  20.4km/h 56.9% 0in /  0.0mm
17:49 71.8 °F /  22.1 °C 55.8 °F /  13.2 °C 30in /  1014.3hPa SE 8.1mph /  13km/h 11.5mph /  18.5km/h 57.3% 0in /  0.0mm
17:54 71.4 °F /  21.9 °C 56.1 °F /  13.4 °C 30in /  1014.3hPa ESE 7.4mph /  11.9km/h 14mph /  22.5km/h 58.6% 0in /  0.0mm
17:59 71.2 °F /  21.8 °C 56.3 °F /  13.5 °C 30in /  1014.2hPa ESE 7.4mph /  11.9km/h 13.8mph /  22.2km/h 59.3% 0in /  0.0mm
18:04 71.1 °F /  21.7 °C 56.5 °F /  13.6 °C 30in /  1014.2hPa ESE 7.4mph /  11.9km/h 9.2mph /  14.8km/h 60% 0in /  0.0mm
18:09 71.1 °F /  21.7 °C 56.8 °F /  13.8 °C 30in /  1014.4hPa ESE 6.9mph /  11.1km/h 13mph /  20.9km/h 60.9% 0in /  0.0mm
18:14 70.7 °F /  21.5 °C 56.7 °F /  13.7 °C 30in /  1014.4hPa ESE 6.2mph /  10km/h 13.8mph /  22.2km/h 61% 0in /  0.0mm
18:19 70.5 °F /  21.4 °C 56.7 °F /  13.7 °C 30in /  1014.4hPa SE 7mph /  11.2km/h 14mph /  22.5km/h 61.5% 0in /  0.0mm
18:24 70.3 °F /  21.3 °C 57 °F /  13.9 °C 30in /  1014.5hPa ESE 8.1mph /  13km/h 15mph /  24.1km/h 62.7% 0in /  0.0mm
18:29 70.2 °F /  21.2 °C 57.2 °F /  14 °C 30in /  1014.5hPa ESE 8.5mph /  13.7km/h 15mph /  24.1km/h 63.9% 0in /  0.0mm
18:34 70 °F /  21.1 °C 57.2 °F /  14 °C 30in /  1014.5hPa ESE 9.2mph /  14.8km/h 16.1mph /  25.9km/h 64% 0in /  0.0mm
18:39 69.8 °F /  21 °C 57.2 °F /  14 °C 30in /  1014.5hPa SE 8.6mph /  13.8km/h 9.2mph /  14.8km/h 64% 0in /  0.0mm
18:44 69.8 °F /  21 °C 57.2 °F /  14 °C 30in /  1014.4hPa SE 7.6mph /  12.2km/h 10.4mph /  16.7km/h 64% 0in /  0.0mm
18:49 69.8 °F /  21 °C 57 °F /  13.9 °C 30in /  1014.4hPa SE 6.9mph /  11.1km/h 9.2mph /  14.8km/h 64% 0in /  0.0mm
18:54 69.6 °F /  20.9 °C 56.7 °F /  13.7 °C 30in /  1014.6hPa SSE 5.9mph /  9.5km/h 9.2mph /  14.8km/h 63.3% 0in /  0.0mm
18:59 69.4 °F /  20.8 °C 56.3 °F /  13.5 °C 30in /  1014.6hPa SE 5.4mph /  8.7km/h 14mph /  22.5km/h 63% 0in /  0.0mm
19:04 69.3 °F /  20.7 °C 56.5 °F /  13.6 °C 30in /  1014.6hPa ESE 4.7mph /  7.6km/h 13.8mph /  22.2km/h 63.8% 0in /  0.0mm
19:09 69.1 °F /  20.6 °C 56.5 °F /  13.6 °C 30in /  1014.7hPa SE 5.6mph /  9km/h 9.7mph /  15.6km/h 64% 0in /  0.0mm
19:14 69.1 °F /  20.6 °C 56.3 °F /  13.5 °C 30in /  1014.7hPa SE 6.9mph /  11.1km/h 11.4mph /  18.3km/h 64% 0in /  0.0mm
19:19 68.7 °F /  20.4 °C 56.1 °F /  13.4 °C 30in /  1014.7hPa SSE 6.5mph /  10.5km/h 11.5mph /  18.5km/h 64% 0in /  0.0mm
19:24 68.7 °F /  20.4 °C 55.9 °F /  13.3 °C 30in /  1014.8hPa SE 5.9mph /  9.5km/h 9.2mph /  14.8km/h 64.1% 0in /  0.0mm
19:29 68.5 °F /  20.3 °C 56.3 °F /  13.5 °C 30in /  1014.8hPa SE 5.5mph /  8.8km/h 10.4mph /  16.7km/h 65% 0in /  0.0mm
19:34 68.4 °F /  20.2 °C 56.3 °F /  13.5 °C 30in /  1014.8hPa SE 4.7mph /  7.6km/h 8.1mph /  13km/h 65.3% 0in /  0.0mm
19:39 68.2 °F /  20.1 °C 56.5 °F /  13.6 °C 30in /  1014.8hPa SE 4.9mph /  7.9km/h 12.3mph /  19.8km/h 66% 0in /  0.0mm
19:44 68 °F /  20 °C 56.7 °F /  13.7 °C 30in /  1014.8hPa SE 5.2mph /  8.4km/h 12.7mph /  20.4km/h 67% 0in /  0.0mm
19:49 67.8 °F /  19.9 °C 56.5 °F /  13.6 °C 30in /  1014.8hPa SE 5.2mph /  8.4km/h 8.1mph /  13km/h 67% 0in /  0.0mm
19:54 67.6 °F /  19.8 °C 56.5 °F /  13.6 °C 30in /  1014.9hPa SE 5.2mph /  8.4km/h 7.4mph /  11.9km/h 67.4% 0in /  0.0mm
19:59 67.5 °F /  19.7 °C 56.3 °F /  13.5 °C 30in /  1014.9hPa Sur 4.7mph /  7.5km/h 8.5mph /  13.7km/h 67.3% 0in /  0.0mm
20:04 67.5 °F /  19.7 °C 56.3 °F /  13.5 °C 30in /  1014.9hPa Sur 4mph /  6.4km/h 5.8mph /  9.3km/h 67.6% 0in /  0.0mm
20:09 67.5 °F /  19.7 °C 56.5 °F /  13.6 °C 30in /  1015.1hPa SSO 3.9mph /  6.2km/h 6.9mph /  11.1km/h 68% 0in /  0.0mm
20:14 67.3 °F /  19.6 °C 56.7 °F /  13.7 °C 30in /  1015.1hPa Sur 3.6mph /  5.8km/h 7.6mph /  12.2km/h 68.7% 0in /  0.0mm
20:19 67.3 °F /  19.6 °C 57 °F /  13.9 °C 30in /  1015.1hPa SE 4mph /  6.5km/h 8.5mph /  13.7km/h 69.4% 0in /  0.0mm
20:24 67.3 °F /  19.6 °C 57.2 °F /  14 °C 30in /  1015.2hPa SE 4.7mph /  7.6km/h 7.4mph /  11.9km/h 70% 0in /  0.0mm
20:29 67.1 °F /  19.5 °C 57 °F /  13.9 °C 30in /  1015.2hPa SE 4.5mph /  7.3km/h 8.1mph /  13km/h 70.1% 0in /  0.0mm
20:34 66.9 °F /  19.4 °C 57.2 °F /  14 °C 30in /  1015.2hPa SSE 4.3mph /  6.9km/h 9.2mph /  14.8km/h 71% 0in /  0.0mm
20:39 66.9 °F /  19.4 °C 57.2 °F /  14 °C 30in /  1015.2hPa SSE 4.3mph /  6.9km/h 6.9mph /  11.1km/h 71% 0in /  0.0mm
20:44 66.7 °F /  19.3 °C 57 °F /  13.9 °C 30in /  1015.2hPa Sur 4.3mph /  6.9km/h 6.9mph /  11.1km/h 71% 0in /  0.0mm
20:49 66.7 °F /  19.3 °C 57.2 °F /  14 °C 30in /  1015.2hPa Sur 4.2mph /  6.7km/h 6.9mph /  11.1km/h 71.6% 0in /  0.0mm
20:54 66.6 °F /  19.2 °C 57.4 °F /  14.1 °C 30in /  1015.3hPa Sur 4mph /  6.4km/h 5.8mph /  9.3km/h 72% 0in /  0.0mm
20:59 66.6 °F /  19.2 °C 57.4 °F /  14.1 °C 30in /  1015.3hPa Sur 3.6mph /  5.8km/h 4.6mph /  7.4km/h 72% 0in /  0.0mm
21:04 66.6 °F /  19.2 °C 57.2 °F /  14 °C 30in /  1015.3hPa Sur 3.1mph /  5km/h 4.6mph /  7.4km/h 72% 0in /  0.0mm
21:09 66.4 °F /  19.1 °C 57 °F /  13.9 °C 30in /  1015.4hPa SSE 2.9mph /  4.6km/h 3.6mph /  5.8km/h 72% 0in /  0.0mm
21:14 66.4 °F /  19.1 °C 57.4 °F /  14.1 °C 30in /  1015.4hPa SSE 2.4mph /  3.9km/h 4.3mph /  6.9km/h 72.8% 0in /  0.0mm
21:19 66.4 °F /  19.1 °C 57.6 °F /  14.2 °C 30in /  1015.4hPa SE 2.2mph /  3.6km/h 4.6mph /  7.4km/h 73% 0in /  0.0mm
21:24 66.4 °F /  19.1 °C 57.6 °F /  14.2 °C 30in /  1015.4hPa SE 2mph /  3.2km/h 3.6mph /  5.8km/h 73% 0in /  0.0mm
21:29 66.4 °F /  19.1 °C 57.6 °F /  14.2 °C 30in /  1015.3hPa SE 2mph /  3.2km/h 4.6mph /  7.4km/h 73% 0in /  0.0mm
21:34 66.2 °F /  19 °C 57.4 °F /  14.1 °C 30in /  1015.3hPa SSE 2mph /  3.2km/h 4.6mph /  7.4km/h 73% 0in /  0.0mm
21:39 66.2 °F /  19 °C 57.4 °F /  14.1 °C 30in /  1015.3hPa SSE 2.2mph /  3.5km/h 2.9mph /  4.7km/h 73% 0in /  0.0mm
21:44 66 °F /  18.9 °C 57.2 °F /  14 °C 30in /  1015.3hPa SSE 2.4mph /  3.9km/h 3.5mph /  5.6km/h 73% 0in /  0.0mm
21:49 66 °F /  18.9 °C 57.2 °F /  14 °C 30in /  1015.3hPa SSE 2.2mph /  3.5km/h 2.3mph /  3.7km/h 73.4% 0in /  0.0mm
21:54 66 °F /  18.9 °C 57.6 °F /  14.2 °C 30in /  1015.5hPa Sur 1.8mph /  2.9km/h 4.6mph /  7.4km/h 74% 0in /  0.0mm
21:59 65.8 °F /  18.8 °C 57.2 °F /  14 °C 30in /  1015.5hPa ONO 1.8mph /  2.9km/h 4.6mph /  7.4km/h 74% 0in /  0.0mm
22:04 65.5 °F /  18.6 °C 57 °F /  13.9 °C 30in /  1015.5hPa ONO 1.8mph /  2.9km/h 4mph /  6.4km/h 74.2% 0in /  0.0mm
22:09 65.1 °F /  18.4 °C 57 °F /  13.9 °C 30in /  1015.6hPa NO 2.1mph /  3.3km/h 4.6mph /  7.4km/h 75% 0in /  0.0mm
22:14 64.8 °F /  18.2 °C 56.8 °F /  13.8 °C 30in /  1015.6hPa NO 2.4mph /  3.9km/h 4.6mph /  7.4km/h 75.6% 0in /  0.0mm
22:19 64.4 °F /  18 °C 56.8 °F /  13.8 °C 30in /  1015.6hPa NO 2.4mph /  3.9km/h 3.6mph /  5.8km/h 76.3% 0in /  0.0mm
22:24 64 °F /  17.8 °C 56.8 °F /  13.8 °C 30in /  1015.6hPa NO 2.4mph /  3.9km/h 4.6mph /  7.4km/h 77.2% 0in /  0.0mm
22:29 63.9 °F /  17.7 °C 56.8 °F /  13.8 °C 30in /  1015.6hPa ONO 2.4mph /  3.9km/h 4.6mph /  7.4km/h 78% 0in /  0.0mm
22:34 63.5 °F /  17.5 °C 56.8 °F /  13.8 °C 30in /  1015.6hPa ONO 2.4mph /  3.9km/h 3.5mph /  5.6km/h 78.8% 0in /  0.0mm
22:39 63.3 °F /  17.4 °C 56.8 °F /  13.8 °C 30in /  1015.6hPa ONO 2mph /  3.2km/h 2.3mph /  3.7km/h 79.3% 0in /  0.0mm
22:44 63.3 °F /  17.4 °C 57 °F /  13.9 °C 30in /  1015.5hPa ONO 1.4mph /  2.3km/h 3.6mph /  5.8km/h 80.2% 0in /  0.0mm
22:49 63.3 °F /  17.4 °C 57.4 °F /  14.1 °C 30in /  1015.5hPa NO 1.6mph /  2.5km/h 2.9mph /  4.7km/h 81% 0in /  0.0mm
22:54 63.3 °F /  17.4 °C 57.4 °F /  14.1 °C 30in /  1015.6hPa NO 1.8mph /  2.9km/h 2.4mph /  3.9km/h 81% 0in /  0.0mm
22:59 63.3 °F /  17.4 °C 57.4 °F /  14.1 °C 30in /  1015.6hPa NO 1mph /  1.6km/h 2.3mph /  3.7km/h 81% 0in /  0.0mm
23:04 63.1 °F /  17.3 °C 57.2 °F /  14 °C 30in /  1015.6hPa Calm   4.6mph /  7.4km/h 81% 0in /  0.0mm
23:09 63 °F /  17.2 °C 57 °F /  13.9 °C 30in /  1015.6hPa ONO 0.8mph /  1.3km/h 3.5mph /  5.6km/h 81% 0in /  0.0mm
23:14 63 °F /  17.2 °C 57.4 °F /  14.1 °C 30in /  1015.5hPa ONO 2mph /  3.2km/h 3.5mph /  5.6km/h 81.8% 0in /  0.0mm
23:19 62.8 °F /  17.1 °C 57.2 °F /  14 °C 30in /  1015.5hPa ONO 1.8mph /  2.9km/h 2.9mph /  4.7km/h 82% 0in /  0.0mm
23:24 62.8 °F /  17.1 °C 57.2 °F /  14 °C 30in /  1015.5hPa ONO 1.4mph /  2.3km/h 4.3mph /  6.9km/h 82% 0in /  0.0mm
23:29 62.4 °F /  16.9 °C 57 °F /  13.9 °C 30in /  1015.5hPa Oeste 1.7mph /  2.8km/h 5.8mph /  9.3km/h 82.1% 0in /  0.0mm
Murcia-Puente Tocinos, Espa?a
Compliments of Weather Underground - 3 mb

La estación de MeteoMurcia.com, publica sus datos en los siguientes proyectos:

Weather Underground PWS IMURCIAP2 Meteoclimatic www.awekas.at

W3Counter
Web Analytics